Flight Track Log - Related Links

Times and Time Zones

All times are in EDT time to prevent confusion due to time zone crossing. See the N832R flight status page for this flight to view local times or setup timezone preferences in your user account.

Time Position Orientation Groundspeed Altitude Reporting Facility
EDT Latitude Longitude Course Direction KTS MPH feet Rate Location/Type
Wed 02:13:52 PM 35.5267 -97.6475 197° South 150 173 2,000  Level Fort Worth Center
Wed 02:14:35 PM 35.4903 -97.6614 197° South 199 229 4,800 4,193 Climbing Fort Worth Center
Wed 02:15:15 PM 35.4581 -97.6306 142° Southeast 223 257 7,800 3,471 Climbing Fort Worth Center
Wed 02:16:17 PM 35.4589 -97.5514 89° East 272 313 10,700 3,097 Climbing Fort Worth Center
Wed 02:17:19 PM 35.4650 -97.4483 86° East 294 338 14,200 3,339 Climbing Fort Worth Center
Wed 02:18:21 PM 35.4822 -97.3350 79° East 328 377 17,600 3,194 Climbing Fort Worth Center
Wed 02:19:23 PM 35.5436 -97.2150 58° Northeast 343 395 20,800 2,806 Climbing Fort Worth Center
Wed 02:20:25 PM 35.5956 -97.1064 60° Northeast 366 421 23,400 2,419 Climbing Fort Worth Center
Wed 02:21:27 PM 35.6472 -96.9942 60° Northeast 374 430 25,800 2,208 Climbing Fort Worth Center
Wed 02:22:30 PM 35.7008 -96.8792 60° Northeast 384 442 28,000 1,920 Climbing Fort Worth Center
Wed 02:23:32 PM 35.7553 -96.7617 60° Northeast 396 456 29,800 1,790 Climbing Fort Worth Center
Wed 02:24:34 PM 35.8108 -96.6425 60° Northeast 399 459 31,700 1,938 Climbing Fort Worth Center
Wed 02:25:42 PM 35.8758 -96.4958 61° Northeast 403 464 34,000 1,708 Climbing Kansas City Center
Wed 02:26:44 PM 35.9336 -96.3711 60° Northeast 410 472 35,400 968 Climbing Kansas City Center
Wed 02:27:46 PM 35.9914 -96.2422 61° Northeast 424 488 36,000 629 Climbing Kansas City Center
Wed 02:28:48 PM 36.0661 -96.0778 61° Northeast 453 521 36,700 871 Climbing Kansas City Center
Wed 02:29:50 PM 36.1281 -95.9411 61° Northeast 456 525 37,800 1,113 Climbing Kansas City Center
Wed 02:30:52 PM 36.1886 -95.8067 61° Northeast 453 521 39,000 1,113 Climbing Kansas City Center
Wed 02:31:54 PM 36.2592 -95.6914 53° Northeast 439 505 40,100 968 Climbing Kansas City Center
Wed 02:32:56 PM 36.3339 -95.5764 51° Northeast 434 499 41,000 435 Climbing Kansas City Center
Wed 02:33:58 PM 36.4078 -95.4581 52° Northeast 433 498 41,000  Level Kansas City Center
Wed 02:35:00 PM 36.5006 -95.3150 51° Northeast 437 503 41,000  Level Kansas City Center
Wed 02:36:02 PM 36.5808 -95.1961 50° Northeast 445 512 41,000  Level Kansas City Center
Wed 02:37:04 PM 36.6544 -95.0806 52° Northeast 446 513 41,000  Level Kansas City Center
Wed 02:38:06 PM 36.7328 -94.9575 52° Northeast 450 518 41,000  Level Kansas City Center
Wed 02:39:08 PM 36.8272 -94.8083 52° Northeast 450 518 41,000  Level Kansas City Center
Wed 02:40:10 PM 36.9064 -94.6856 51° Northeast 451 519 41,000  Level Kansas City Center
Wed 02:41:12 PM 36.9842 -94.5619 52° Northeast 451 519 41,000  Level Kansas City Center
Wed 02:42:14 PM 37.0628 -94.4361 52° Northeast 453 521 41,000  Level Kansas City Center
Wed 02:43:16 PM 37.1408 -94.3108 52° Northeast 455 524 41,000  Level Kansas City Center
Wed 02:44:18 PM 37.2200 -94.1858 51° Northeast 455 524 41,000  Level Kansas City Center
Wed 02:45:20 PM 37.3119 -94.0383 52° Northeast 455 524 41,000  Level Kansas City Center
Wed 02:46:22 PM 37.3892 -93.9119 52° Northeast 455 524 41,000  Level Kansas City Center
Wed 02:47:24 PM 37.4667 -93.7847 52° Northeast 456 525 41,000  Level Kansas City Center
Wed 02:48:26 PM 37.5439 -93.6578 52° Northeast 455 524 41,000  Level Kansas City Center
Wed 02:49:28 PM 37.6228 -93.5314 52° Northeast 455 524 41,000  Level Kansas City Center
Wed 02:50:30 PM 37.7008 -93.4019 53° Northeast 458 527 41,000  Level Kansas City Center
Wed 02:51:32 PM 37.7783 -93.2750 52° Northeast 457 526 41,000  Level Kansas City Center
Wed 02:52:34 PM 37.8564 -93.1456 53° Northeast 458 527 41,000  Level Kansas City Center
Wed 02:53:36 PM 37.9483 -92.9919 53° Northeast 456 525 41,000  Level Kansas City Center
Wed 02:54:38 PM 38.0253 -92.8633 53° Northeast 456 525 41,000  Level Kansas City Center
Wed 02:55:40 PM 38.1025 -92.7350 53° Northeast 455 524 41,000  Level Kansas City Center
Wed 02:56:42 PM 38.1833 -92.5989 53° Northeast 455 524 41,000  Level Kansas City Center
Wed 02:57:44 PM 38.2581 -92.4733 53° Northeast 455 524 41,000  Level Kansas City Center
Wed 02:58:46 PM 38.3358 -92.3417 53° Northeast 456 525 41,000  Level Kansas City Center
Wed 02:59:48 PM 38.4125 -92.2114 53° Northeast 456 525 41,000  Level Kansas City Center
Wed 03:00:50 PM 38.4894 -92.0803 53° Northeast 456 525 41,000  Level Kansas City Center
Wed 03:01:52 PM 38.5664 -91.9483 53° Northeast 456 525 41,000  Level Kansas City Center
Wed 03:02:54 PM 38.6586 -91.7894 53° Northeast 457 526 41,000  Level Kansas City Center
Wed 03:03:56 PM 38.7328 -91.6592 54° Northeast 458 527 41,000  Level Kansas City Center
Wed 03:04:58 PM 38.8106 -91.5250 53° Northeast 464 534 41,000  Level Kansas City Center
Wed 03:06:00 PM 38.8850 -91.3917 54° Northeast 463 533 41,000  Level Kansas City Center
Wed 03:07:02 PM 38.9631 -91.2578 53° Northeast 464 534 41,000  Level Kansas City Center
Wed 03:08:04 PM 39.0389 -91.1242 54° Northeast 464 534 41,000  Level Kansas City Center
Wed 03:09:07 PM 39.1167 -90.9892 53° Northeast 464 534 41,000  Level Kansas City Center
Wed 03:10:09 PM 39.2083 -90.8258 54° Northeast 464 534 41,000  Level Kansas City Center
Wed 03:11:11 PM 39.2861 -90.6864 54° Northeast 476 548 41,000  Level Kansas City Center
Wed 03:12:13 PM 39.3619 -90.5489 54° Northeast 473 544 41,000  Level Kansas City Center
Wed 03:13:15 PM 39.4389 -90.4114 54° Northeast 473 544 41,000  Level Kansas City Center
Wed 03:14:17 PM 39.5156 -90.2747 54° Northeast 472 543 41,000  Level Kansas City Center
Wed 03:15:19 PM 39.5892 -90.1383 55° Northeast 467 537 41,000  Level Kansas City Center
Wed 03:16:21 PM 39.6647 -90.0022 54° Northeast 466 536 41,000  Level Kansas City Center
Wed 03:17:23 PM 39.7489 -89.8478 55° Northeast 465 535 41,000  Level Kansas City Center
Wed 03:18:25 PM 39.8222 -89.7125 55° Northeast 463 533 41,000  Level Kansas City Center
Wed 03:19:27 PM 39.8958 -89.5786 54° Northeast 462 532 41,000  Level Kansas City Center
Wed 03:20:29 PM 39.9828 -89.4150 55° Northeast 462 532 41,000 -194 Level Kansas City Center
Wed 03:21:31 PM 40.0572 -89.2778 55° Northeast 462 532 40,600 -563 Descending Kansas City Center
Wed 03:22:37 PM 40.1303 -89.1394 55° Northeast 463 533 39,800 -750 Descending Chicago Center
Wed 03:23:39 PM 40.2047 -88.9981 55° Northeast 469 540 39,000 -823 Descending Chicago Center
Wed 03:24:41 PM 40.2931 -88.8347 55° Northeast 469 540 38,100 -871 Descending Chicago Center
Wed 03:25:43 PM 40.3647 -88.6953 56° Northeast 462 532 37,200 -823 Descending Chicago Center
Wed 03:26:45 PM 40.4403 -88.5522 55° Northeast 471 542 36,400 -774 Descending Chicago Center
Wed 03:27:47 PM 40.5167 -88.4056 56° Northeast 478 550 35,600 -726 Descending Chicago Center
Wed 03:28:49 PM 40.5919 -88.2608 56° Northeast 479 551 34,900 -823 Descending Chicago Center
Wed 03:29:51 PM 40.6825 -88.0861 56° Northeast 484 557 33,900 -871 Descending Chicago Center
Wed 03:30:53 PM 40.7575 -87.9408 56° Northeast 484 557 33,100 -823 Descending Chicago Center
Wed 03:31:55 PM 40.8322 -87.7950 56° Northeast 484 557 32,200 -1,008 Descending Chicago Center
Wed 03:32:58 PM 40.9075 -87.6453 56° Northeast 487 560 31,000 -1,392 Descending Chicago Center
Wed 03:34:00 PM 40.9828 -87.4994 56° Northeast 487 560 29,300 -2,081 Descending Chicago Center
Wed 03:35:02 PM 41.0697 -87.3267 56° Northeast 476 548 26,700 -2,516 Descending Chicago Center
Wed 03:36:04 PM 41.1400 -87.1856 56° Northeast 465 535 24,100 -2,032 Descending Chicago Center
Wed 03:37:06 PM 41.1992 -87.0478 60° Northeast 441 507 22,500 -1,790 Descending Chicago Center
Wed 03:38:08 PM 41.2122 -86.8958 83° East 419 482 20,400 -1,355 Descending Chicago Center
Wed 03:39:10 PM 41.2250 -86.7556 83° East 389 448 19,700 -1,306 Descending Chicago Center
Wed 03:40:12 PM 41.2550 -86.6131 74° East 373 429 17,700 -2,304 Descending Chicago Center
Wed 03:41:15 PM 41.3033 -86.5017 60° Northeast 350 403 14,900 -2,688 Descending Chicago Center
Wed 03:42:17 PM 41.3492 -86.3986 59° Northeast 323 372 12,100 -2,806 Descending Chicago Center
Wed 03:43:19 PM 41.4036 -86.2872 57° Northeast 301 346 9,100 -1,984 Descending Chicago Center
Wed 03:44:21 PM 41.4611 -86.2239 40° Northeast 270 311 8,000 -1,355 Descending Chicago Center
Wed 03:45:23 PM 41.5261 -86.1825 25° Northeast 262 302 6,300 -1,742 Descending Chicago Center
Wed 03:46:25 PM 41.5914 -86.1458 23° Northeast 259 298 4,400 -1,597 Descending Chicago Center
Wed 03:47:27 PM 41.6533 -86.1136 21° North 250 288 3,000 -1,016 Descending Chicago Center
Wed 03:48:29 PM 41.7100 -86.0856 20° North 235 270 2,300 -864 Descending Chicago Center
Wed 03:49:32 PM 41.7203 -86.0400 73° East 172 198 1,200 -1,048 Descending Chicago Center
Wed 03:51:00 PM 41.7167 -86.0000 37° Northeast  Level FlightAware Approximate
Wed 03:58:00 PM 41.7194 -86.0032 37° Northeast  Level Estimated
Wed 03:59:00 PM 41.7167 -86.0000 37° Northeast  Level FlightAware Approximate

Login

Don't have an account? Register now (free) for customized features, flight alerts, and more!